createdAt,value
2022-11-05T00:02:16.784Z,67
2022-11-05T00:04:47.951Z,68
2022-11-05T00:07:19.163Z,69
2022-11-05T00:09:49.875Z,69
2022-11-05T00:12:21.306Z,70
2022-11-05T00:14:52.109Z,70
2022-11-05T00:17:23.357Z,72
2022-11-05T00:19:54.355Z,73
2022-11-05T00:22:25.311Z,73
2022-11-05T00:24:56.745Z,73
2022-11-05T00:27:27.668Z,74
2022-11-05T00:29:59.067Z,73
2022-11-05T00:32:30.431Z,72
2022-11-05T00:35:02.028Z,73
2022-11-05T00:37:33.552Z,73
2022-11-05T00:40:04.936Z,74
2022-11-05T00:42:36.305Z,73
2022-11-05T00:45:07.505Z,73
2022-11-05T00:47:38.090Z,73
2022-11-05T00:50:08.691Z,73
2022-11-05T00:52:39.341Z,75
2022-11-05T00:55:10.277Z,75
2022-11-05T00:57:41.750Z,76
2022-11-05T01:00:12.208Z,76
2022-11-05T01:02:43.689Z,77
2022-11-05T01:05:15.221Z,77
2022-11-05T01:07:46.462Z,77
2022-11-05T01:10:17.439Z,77
2022-11-05T01:12:48.696Z,77
2022-11-05T01:15:19.945Z,76
2022-11-05T01:17:51.022Z,76
2022-11-05T01:20:21.752Z,75
2022-11-05T01:22:52.883Z,77
2022-11-05T01:25:24.189Z,76
2022-11-05T01:27:55.551Z,77
2022-11-05T01:30:27.004Z,77
2022-11-05T01:32:58.302Z,76
2022-11-05T01:35:28.575Z,76
2022-11-05T01:37:59.663Z,76
2022-11-05T01:40:30.370Z,76
2022-11-05T01:43:01.677Z,76
2022-11-05T01:45:32.243Z,76
2022-11-05T01:48:03.759Z,75
2022-11-05T01:50:34.621Z,75
2022-11-05T01:53:05.782Z,76
2022-11-05T01:55:37.084Z,75
2022-11-05T01:58:07.223Z,75
2022-11-05T02:00:37.949Z,75
2022-11-05T02:03:08.962Z,75
2022-11-05T02:05:39.775Z,75
2022-11-05T02:08:10.588Z,75
2022-11-05T02:10:41.754Z,75
2022-11-05T02:13:13.513Z,76
2022-11-05T02:15:44.627Z,76
2022-11-05T02:18:15.834Z,76
2022-11-05T02:20:51.931Z,76
2022-11-05T02:23:18.151Z,76
2022-11-05T02:25:48.921Z,77
2022-11-05T02:28:19.604Z,77
2022-11-05T02:30:51.083Z,77
2022-11-05T02:33:22.078Z,77
2022-11-05T02:35:53.545Z,77
2022-11-05T02:38:24.481Z,77
2022-11-05T02:40:55.720Z,77
2022-11-05T02:43:26.170Z,77
2022-11-05T02:45:56.838Z,76
2022-11-05T02:48:28.495Z,77
2022-11-05T02:50:59.482Z,77
2022-11-05T02:53:30.048Z,77
2022-11-05T02:56:01.773Z,77
2022-11-05T02:58:32.659Z,77
2022-11-05T03:01:03.942Z,77
2022-11-05T03:03:34.418Z,78
2022-11-05T03:06:05.384Z,77
2022-11-05T03:08:37.212Z,77
2022-11-05T03:11:08.874Z,77
2022-11-05T03:13:39.988Z,76
2022-11-05T03:16:11.021Z,76
2022-11-05T03:18:41.619Z,76
2022-11-05T03:21:13.425Z,76
2022-11-05T03:23:44.199Z,76
2022-11-05T03:26:15.954Z,77
2022-11-05T03:28:47.078Z,77
2022-11-05T03:31:18.603Z,77
2022-11-05T03:33:49.789Z,77
2022-11-05T03:36:20.844Z,76
2022-11-05T03:38:51.669Z,76
2022-11-05T03:41:22.423Z,76
2022-11-05T03:43:53.403Z,76
2022-11-05T03:46:24.322Z,76
2022-11-05T03:48:55.886Z,76
2022-11-05T03:51:26.550Z,76
2022-11-05T03:53:58.279Z,76
2022-11-05T03:56:30.087Z,77
2022-11-05T03:59:01.923Z,77
2022-11-05T04:01:32.916Z,77
2022-11-05T04:04:04.171Z,77
2022-11-05T04:06:34.945Z,76
2022-11-05T04:09:05.881Z,77
2022-11-05T04:11:36.301Z,77
2022-11-05T04:14:07.353Z,77
2022-11-05T04:16:38.425Z,78
2022-11-05T04:19:10.066Z,77
2022-11-05T04:21:41.886Z,77
2022-11-05T04:24:12.732Z,77
2022-11-05T04:26:43.792Z,77
2022-11-05T04:29:15.052Z,77
2022-11-05T04:31:47.196Z,77
2022-11-05T04:34:17.524Z,78
2022-11-05T04:36:48.971Z,78
2022-11-05T04:39:19.837Z,77
2022-11-05T04:41:51.328Z,78
2022-11-05T04:44:23.049Z,78
2022-11-05T04:46:53.692Z,78
2022-11-05T04:49:24.913Z,78
2022-11-05T04:51:56.816Z,78
2022-11-05T04:54:28.256Z,78
2022-11-05T04:56:59.380Z,78
2022-11-05T04:59:31.530Z,78
2022-11-05T05:02:02.950Z,79
2022-11-05T05:04:34.302Z,78
2022-11-05T05:07:05.251Z,78
2022-11-05T05:09:36.491Z,78
2022-11-05T05:12:07.090Z,78
2022-11-05T05:14:38.402Z,79
2022-11-05T05:17:10.029Z,79
2022-11-05T05:19:41.503Z,78
2022-11-05T05:22:13.553Z,79
2022-11-05T05:24:48.658Z,79
2022-11-05T05:27:16.242Z,80
2022-11-05T05:29:48.156Z,80
2022-11-05T05:32:19.428Z,80
2022-11-05T05:34:50.550Z,80
2022-11-05T05:37:21.408Z,80
2022-11-05T05:39:51.936Z,80
2022-11-05T05:42:23.181Z,80
2022-11-05T05:44:54.097Z,80
2022-11-05T05:47:25.290Z,80
2022-11-05T05:49:56.924Z,80
2022-11-05T05:52:28.320Z,80
2022-11-05T05:54:59.316Z,81
2022-11-05T05:57:31.426Z,81
2022-11-05T06:00:03.402Z,81
2022-11-05T06:02:34.547Z,81
2022-11-05T06:05:06.103Z,81
2022-11-05T06:07:37.545Z,81
2022-11-05T06:10:06.941Z,81
2022-11-05T06:12:37.682Z,81
2022-11-05T06:15:08.935Z,82
2022-11-05T06:17:40.712Z,81
2022-11-05T06:20:11.787Z,81
2022-11-05T06:22:42.343Z,81
2022-11-05T06:25:14.002Z,81
2022-11-05T06:27:45.110Z,81
2022-11-05T06:30:17.077Z,81
2022-11-05T06:32:48.279Z,81
2022-11-05T06:35:19.127Z,81
2022-11-05T06:37:50.770Z,81
2022-11-05T06:40:22.246Z,81
2022-11-05T06:42:53.558Z,82
2022-11-05T06:45:24.820Z,81
2022-11-05T06:47:56.444Z,81
2022-11-05T06:50:28.327Z,80
2022-11-05T06:52:59.187Z,81
2022-11-05T06:55:29.923Z,80
2022-11-05T06:58:01.673Z,81
2022-11-05T07:00:32.713Z,81
2022-11-05T07:03:04.187Z,80
2022-11-05T07:05:35.056Z,81
2022-11-05T07:08:06.510Z,81
2022-11-05T07:10:36.825Z,81
2022-11-05T07:13:08.921Z,81
2022-11-05T07:15:38.500Z,81
2022-11-05T07:18:09.626Z,82
2022-11-05T07:20:41.007Z,81
2022-11-05T07:23:12.990Z,82
2022-11-05T07:25:44.073Z,81
2022-11-05T07:28:14.817Z,81
2022-11-05T07:30:45.810Z,82
2022-11-05T07:33:16.991Z,82
2022-11-05T07:35:47.998Z,80
2022-11-05T07:38:18.905Z,80
2022-11-05T07:40:49.963Z,81
2022-11-05T07:43:21.201Z,81
2022-11-05T07:45:52.570Z,80
2022-11-05T07:48:24.199Z,80
2022-11-05T07:50:54.799Z,81
2022-11-05T07:53:26.153Z,81
2022-11-05T07:55:57.304Z,81
2022-11-05T07:58:28.450Z,81
2022-11-05T08:01:00.390Z,80
2022-11-05T08:03:31.704Z,81
2022-11-05T08:06:02.666Z,81
2022-11-05T08:08:34.240Z,81
2022-11-05T08:11:05.061Z,81
2022-11-05T08:13:35.750Z,81
2022-11-05T08:16:07.066Z,81
2022-11-05T08:18:38.193Z,81
2022-11-05T08:21:09.452Z,81
2022-11-05T08:23:42.107Z,81
2022-11-05T08:26:13.908Z,80
2022-11-05T08:28:45.198Z,80
2022-11-05T08:31:17.301Z,80
2022-11-05T08:33:48.482Z,80
2022-11-05T08:36:19.350Z,80
2022-11-05T08:38:51.242Z,80
2022-11-05T08:41:23.081Z,79
2022-11-05T08:43:54.708Z,79
2022-11-05T08:46:27.162Z,79
2022-11-05T08:48:57.005Z,79
2022-11-05T08:51:29.742Z,79
2022-11-05T08:54:01.367Z,79
2022-11-05T08:56:32.865Z,79
2022-11-05T08:59:04.320Z,79
2022-11-05T09:01:35.756Z,78
2022-11-05T09:04:07.062Z,78
2022-11-05T09:06:38.292Z,78
2022-11-05T09:09:09.838Z,78
2022-11-05T09:12:05.653Z,78
2022-11-05T09:14:11.708Z,78
2022-11-05T09:16:42.720Z,78
2022-11-05T09:19:14.309Z,78
2022-11-05T09:21:45.895Z,78
2022-11-05T09:24:17.809Z,78
2022-11-05T09:26:48.881Z,78
2022-11-05T09:29:20.686Z,78
2022-11-05T09:31:52.353Z,78
2022-11-05T09:34:23.888Z,77
2022-11-05T09:36:55.164Z,77
2022-11-05T09:39:26.443Z,77
2022-11-05T09:41:57.538Z,77
2022-11-05T09:44:29.460Z,77
2022-11-05T09:47:00.125Z,77
2022-11-05T09:49:31.764Z,77
2022-11-05T09:52:03.406Z,77
2022-11-05T09:54:34.861Z,77
2022-11-05T09:57:05.822Z,77
2022-11-05T09:59:36.888Z,77
2022-11-05T10:02:08.729Z,77
2022-11-05T10:04:39.869Z,77
2022-11-05T10:07:10.910Z,78
2022-11-05T10:09:42.636Z,78
2022-11-05T10:12:13.833Z,78
2022-11-05T10:14:45.780Z,77
2022-11-05T10:17:16.716Z,77
2022-11-05T10:19:47.672Z,77
2022-11-05T10:22:19.436Z,76
2022-11-05T10:24:50.592Z,76
2022-11-05T10:27:20.154Z,76
2022-11-05T10:29:51.305Z,76
2022-11-05T10:32:22.499Z,76
2022-11-05T10:34:54.516Z,76
2022-11-05T10:37:26.007Z,76
2022-11-05T10:39:56.825Z,76
2022-11-05T10:42:27.746Z,76
2022-11-05T10:44:59.413Z,76
2022-11-05T10:47:30.805Z,77
2022-11-05T10:50:01.927Z,76
2022-11-05T10:52:33.710Z,76
2022-11-05T10:55:04.934Z,75
2022-11-05T10:57:35.974Z,75
2022-11-05T11:00:07.667Z,75
2022-11-05T11:02:39.211Z,74
2022-11-05T11:05:10.773Z,75
2022-11-05T11:07:41.788Z,75
2022-11-05T11:10:13.402Z,75
2022-11-05T11:12:44.623Z,75
2022-11-05T11:15:15.404Z,76
2022-11-05T11:17:46.740Z,76
2022-11-05T11:20:18.329Z,76
2022-11-05T11:22:48.974Z,76
2022-11-05T11:25:20.750Z,76
2022-11-05T11:27:52.294Z,76
2022-11-05T11:30:23.502Z,77
2022-11-05T11:32:54.570Z,77
2022-11-05T11:35:26.363Z,77
2022-11-05T11:37:58.466Z,77
2022-11-05T11:40:30.268Z,76
2022-11-05T11:43:01.022Z,76
2022-11-05T11:45:31.916Z,76
2022-11-05T11:48:02.808Z,76
2022-11-05T11:50:34.731Z,76
2022-11-05T11:53:06.556Z,76
2022-11-05T11:55:37.329Z,76
2022-11-05T11:58:08.678Z,77
2022-11-05T12:00:40.902Z,76
2022-11-05T12:03:12.511Z,76
2022-11-05T12:05:44.387Z,77
2022-11-05T12:08:15.962Z,77
2022-11-05T12:10:47.783Z,77
2022-11-05T12:13:18.981Z,77
2022-11-05T12:15:50.409Z,77
2022-11-05T12:18:22.230Z,77
2022-11-05T12:20:57.933Z,77
2022-11-05T12:23:25.226Z,77
2022-11-05T12:25:56.424Z,77
2022-11-05T12:28:29.603Z,77
2022-11-05T12:31:00.609Z,77
2022-11-05T12:33:31.653Z,77
2022-11-05T12:36:02.894Z,76
2022-11-05T12:38:35.036Z,76
2022-11-05T12:41:06.693Z,77
2022-11-05T12:43:37.890Z,77
2022-11-05T12:46:09.213Z,77
2022-11-05T12:48:40.828Z,76
2022-11-05T12:51:12.413Z,76
2022-11-05T12:53:44.111Z,76
2022-11-05T12:56:15.243Z,76
2022-11-05T12:58:47.055Z,77
2022-11-05T13:01:18.673Z,77
2022-11-05T13:03:50.243Z,76
2022-11-05T13:06:21.492Z,77
2022-11-05T13:08:52.891Z,76
2022-11-05T13:11:24.525Z,77
2022-11-05T13:13:55.599Z,77
2022-11-05T13:16:26.863Z,77
2022-11-05T13:18:58.525Z,76
2022-11-05T13:21:29.921Z,77
2022-11-05T13:24:01.652Z,77
2022-11-05T13:26:33.490Z,77
2022-11-05T13:29:05.192Z,76
2022-11-05T13:31:36.869Z,76
2022-11-05T13:34:08.280Z,77
2022-11-05T13:36:39.104Z,77
2022-11-05T13:39:10.534Z,77
2022-11-05T13:41:42.288Z,77
2022-11-05T13:44:14.604Z,77
2022-11-05T13:46:45.495Z,77
2022-11-05T13:49:16.590Z,77
2022-11-05T13:51:47.967Z,77
2022-11-05T13:54:19.686Z,77
2022-11-05T13:56:50.568Z,78
2022-11-05T13:59:22.304Z,77
2022-11-05T14:01:55.585Z,78
2022-11-05T14:04:26.906Z,78
2022-11-05T14:06:57.589Z,78
2022-11-05T14:09:29.655Z,78
2022-11-05T14:12:00.988Z,78
2022-11-05T14:14:31.230Z,79
2022-11-05T14:17:02.146Z,78
2022-11-05T14:19:34.595Z,78
2022-11-05T14:22:06.394Z,78
2022-11-05T14:24:38.927Z,78
2022-11-05T14:27:09.955Z,77
2022-11-05T14:29:41.579Z,78
2022-11-05T14:32:12.860Z,78
2022-11-05T14:34:43.986Z,78
2022-11-05T14:37:14.762Z,78
2022-11-05T14:39:46.675Z,78
2022-11-05T14:42:17.678Z,79
2022-11-05T14:44:49.412Z,78
2022-11-05T14:47:20.350Z,78
2022-11-05T14:49:51.430Z,78
2022-11-05T14:52:22.438Z,78
2022-11-05T14:54:53.661Z,78
2022-11-05T14:57:24.913Z,79
2022-11-05T14:59:57.012Z,78
2022-11-05T15:02:29.368Z,78
2022-11-05T15:05:04.646Z,78
2022-11-05T15:07:35.451Z,78
2022-11-05T15:10:10.467Z,78
2022-11-05T15:12:41.596Z,78
2022-11-05T15:15:17.356Z,78
2022-11-05T15:17:45.462Z,78
2022-11-05T15:20:17.280Z,79
2022-11-05T15:22:48.994Z,79
2022-11-05T15:25:20.316Z,79
2022-11-05T15:27:52.221Z,78
2022-11-05T15:30:23.740Z,79
2022-11-05T15:32:55.345Z,79
2022-11-05T15:35:26.439Z,79
2022-11-05T15:38:01.943Z,79
2022-11-05T15:40:29.618Z,79
2022-11-05T15:43:00.757Z,79
2022-11-05T15:45:32.075Z,79
2022-11-05T15:48:03.112Z,79
2022-11-05T15:50:34.372Z,79
2022-11-05T15:53:27.686Z,79
2022-11-05T15:55:37.139Z,79
2022-11-05T15:58:06.667Z,78
2022-11-05T16:00:37.475Z,79
2022-11-05T16:03:09.918Z,79
2022-11-05T16:05:41.847Z,78
2022-11-05T16:08:13.820Z,79
2022-11-05T16:10:45.207Z,78
2022-11-05T16:13:17.046Z,79
2022-11-05T16:15:48.160Z,79
2022-11-05T16:18:19.652Z,79
2022-11-05T16:20:51.457Z,79
2022-11-05T16:23:22.883Z,79
2022-11-05T16:25:53.611Z,79
2022-11-05T16:28:25.579Z,79
2022-11-05T16:30:57.723Z,79
2022-11-05T16:33:29.689Z,78
2022-11-05T16:36:01.654Z,79
2022-11-05T16:38:32.526Z,79
2022-11-05T16:41:03.817Z,79
2022-11-05T16:43:34.672Z,79
2022-11-05T16:46:06.248Z,79
2022-11-05T16:48:37.036Z,79
2022-11-05T16:51:08.412Z,80
2022-11-05T16:53:39.826Z,80
2022-11-05T16:56:11.822Z,80
2022-11-05T16:58:43.708Z,79
2022-11-05T17:01:14.611Z,80
2022-11-05T17:03:46.077Z,79
2022-11-05T17:06:17.671Z,79
2022-11-05T17:08:48.997Z,79
2022-11-05T17:11:20.637Z,79
2022-11-05T17:13:51.829Z,79
2022-11-05T17:16:22.959Z,79
2022-11-05T17:18:54.183Z,80
2022-11-05T17:21:25.651Z,79
2022-11-05T17:23:57.353Z,79
2022-11-05T17:26:29.071Z,79
2022-11-05T17:28:59.912Z,79
2022-11-05T17:31:31.983Z,80
2022-11-05T17:34:03.417Z,79
2022-11-05T17:36:34.774Z,80
2022-11-05T17:39:05.997Z,79
2022-11-05T17:41:37.272Z,79
2022-11-05T17:44:08.162Z,80
2022-11-05T17:46:38.952Z,79
2022-11-05T17:49:10.543Z,79
2022-11-05T17:51:43.659Z,79
2022-11-05T17:54:14.961Z,79
2022-11-05T17:56:46.544Z,79
2022-11-05T17:59:17.206Z,79
2022-11-05T18:01:48.578Z,79
2022-11-05T18:04:19.509Z,79
2022-11-05T18:06:51.091Z,79
2022-11-05T18:09:22.163Z,79
2022-11-05T18:11:54.185Z,79
2022-11-05T18:14:26.504Z,80
2022-11-05T18:16:57.407Z,79
2022-11-05T18:19:29.869Z,80
2022-11-05T18:22:00.929Z,79
2022-11-05T18:24:34.333Z,79
2022-11-05T18:27:06.585Z,79
2022-11-05T18:29:37.738Z,79
2022-11-05T18:32:09.449Z,80
2022-11-05T18:34:41.176Z,79
2022-11-05T18:37:13.549Z,80
2022-11-05T18:39:44.821Z,80
2022-11-05T18:42:15.981Z,80
2022-11-05T18:44:47.323Z,79
2022-11-05T18:47:18.699Z,79
2022-11-05T18:49:49.655Z,79
2022-11-05T18:52:21.075Z,79
2022-11-05T18:54:50.625Z,79
2022-11-05T18:57:21.840Z,79
2022-11-05T18:59:53.195Z,79
2022-11-05T19:02:24.953Z,79
2022-11-05T19:05:22.440Z,79
2022-11-05T19:07:29.551Z,79
2022-11-05T19:10:01.164Z,79
2022-11-05T19:12:32.321Z,79
2022-11-05T19:15:04.059Z,79
2022-11-05T19:17:36.257Z,79
2022-11-05T19:20:07.460Z,79
2022-11-05T19:22:38.334Z,79
2022-11-05T19:25:09.814Z,79
2022-11-05T19:27:41.068Z,79
2022-11-05T19:30:15.032Z,78
2022-11-05T19:32:48.191Z,78
2022-11-05T19:35:19.823Z,78
2022-11-05T19:37:51.851Z,79
2022-11-05T19:40:22.996Z,79
2022-11-05T19:42:54.201Z,80
2022-11-05T19:47:56.791Z,80
2022-11-05T19:50:28.817Z,80
2022-11-05T19:53:01.255Z,80
2022-11-05T19:55:32.460Z,79
2022-11-05T19:58:03.587Z,80
2022-11-05T20:00:35.153Z,80
2022-11-05T20:03:06.441Z,80
2022-11-05T20:05:38.379Z,80
2022-11-05T20:08:10.610Z,79
2022-11-05T20:10:41.046Z,79
2022-11-05T20:13:15.607Z,79
2022-11-05T20:15:44.819Z,79
2022-11-05T20:18:16.563Z,79
2022-11-05T20:20:48.313Z,79
2022-11-05T20:23:20.680Z,79
2022-11-05T20:25:52.441Z,79
2022-11-05T20:28:23.933Z,79
2022-11-05T20:30:55.050Z,79
2022-11-05T20:33:26.493Z,79
2022-11-05T20:35:57.508Z,79
2022-11-05T20:38:29.982Z,79
2022-11-05T20:41:01.653Z,79
2022-11-05T20:43:34.025Z,80
2022-11-05T20:46:05.911Z,79
2022-11-05T20:48:37.270Z,79
2022-11-05T20:51:08.748Z,79
2022-11-05T20:53:41.387Z,79
2022-11-05T20:56:13.544Z,79
2022-11-05T20:58:44.754Z,79
2022-11-05T21:01:16.820Z,79
2022-11-05T21:03:49.140Z,79
2022-11-05T21:06:20.214Z,79
2022-11-05T21:08:53.163Z,79
2022-11-05T21:11:24.362Z,79
2022-11-05T21:13:55.759Z,79
2022-11-05T21:16:27.406Z,79
2022-11-05T21:18:58.564Z,79
2022-11-05T21:21:30.111Z,79
2022-11-05T21:24:01.577Z,79
2022-11-05T21:26:32.891Z,79
2022-11-05T21:29:04.321Z,79
2022-11-05T21:31:36.016Z,79
2022-11-05T21:34:07.029Z,80
2022-11-05T21:36:38.120Z,79
2022-11-05T21:39:13.369Z,79
2022-11-05T21:41:41.068Z,80
2022-11-05T21:44:12.096Z,80
2022-11-05T21:46:43.595Z,79
2022-11-05T21:49:14.832Z,79
2022-11-05T21:51:47.128Z,80
2022-11-05T21:54:18.550Z,80
2022-11-05T21:56:50.906Z,80
2022-11-05T21:59:25.951Z,80
2022-11-05T22:01:57.824Z,80
2022-11-05T22:04:29.421Z,80
2022-11-05T22:07:01.012Z,80
2022-11-05T22:09:32.382Z,80
2022-11-05T22:12:03.889Z,80
2022-11-05T22:14:37.550Z,80
2022-11-05T22:17:09.779Z,80
2022-11-05T22:19:41.604Z,80
2022-11-05T22:22:12.416Z,80
2022-11-05T22:24:44.216Z,80
2022-11-05T22:27:15.434Z,80
2022-11-05T22:29:49.067Z,80
2022-11-05T22:32:20.142Z,80
2022-11-05T22:34:51.443Z,80
2022-11-05T22:37:23.056Z,80
2022-11-05T22:39:55.053Z,80
2022-11-05T22:42:27.098Z,80
2022-11-05T22:44:58.897Z,80
2022-11-05T22:47:30.660Z,80
2022-11-05T22:50:02.790Z,79
2022-11-05T22:52:34.030Z,79
2022-11-05T22:55:05.299Z,79
2022-11-05T22:57:37.314Z,79
2022-11-05T23:00:10.681Z,80
2022-11-05T23:02:42.615Z,80
2022-11-05T23:05:17.500Z,80
2022-11-05T23:07:49.043Z,80
2022-11-05T23:10:20.286Z,80
2022-11-05T23:12:51.082Z,80
2022-11-05T23:15:22.349Z,80
2022-11-05T23:17:53.250Z,80
2022-11-05T23:20:24.427Z,80
2022-11-05T23:22:55.551Z,80
2022-11-05T23:25:27.226Z,81
2022-11-05T23:27:58.286Z,81
2022-11-05T23:30:29.851Z,80
2022-11-05T23:33:00.947Z,80
2022-11-05T23:35:31.731Z,80
2022-11-05T23:38:02.407Z,81
2022-11-05T23:40:33.485Z,81
2022-11-05T23:43:04.505Z,81
2022-11-05T23:45:35.386Z,81
2022-11-05T23:48:06.552Z,80
2022-11-05T23:50:39.886Z,80
2022-11-05T23:53:08.871Z,80
2022-11-05T23:55:39.364Z,80
2022-11-05T23:58:11.209Z,80
